createdAt,value
2019-05-28T00:01:53.236Z,100361.08
2019-05-28T00:04:43.484Z,100362.55
2019-05-28T00:07:33.862Z,100360.55
2019-05-28T00:10:24.167Z,100347.81
2019-05-28T00:13:14.639Z,100349.35
2019-05-28T00:16:09.763Z,100344.60
2019-05-28T00:18:57.912Z,100349.17
2019-05-28T00:21:48.269Z,100342.03
2019-05-28T00:24:38.576Z,100343.21
2019-05-28T00:27:28.915Z,100342.25
2019-05-28T00:30:21.047Z,100332.75
2019-05-28T00:33:11.810Z,100336.47
2019-05-28T00:36:02.176Z,100324.22
2019-05-28T00:38:52.540Z,100325.08
2019-05-28T00:41:42.891Z,100328.60
2019-05-28T00:44:33.180Z,100318.61
2019-05-28T00:47:23.527Z,100321.45
2019-05-28T00:50:13.740Z,100319.19
2019-05-28T00:53:04.082Z,100323.99
2019-05-28T00:55:54.359Z,100324.54
2019-05-28T00:58:44.660Z,100323.05
2019-05-28T01:01:35.092Z,100318.47
2019-05-28T01:04:25.662Z,100314.55
2019-05-28T01:07:16.113Z,100312.50
2019-05-28T01:10:07.098Z,100305.67
2019-05-28T01:12:58.336Z,100304.50
2019-05-28T01:15:48.711Z,100295.93
2019-05-28T01:18:39.062Z,100299.19
2019-05-28T01:21:29.359Z,100304.37
2019-05-28T01:24:19.421Z,100301.06
2019-05-28T01:27:09.498Z,100301.39
2019-05-28T01:29:59.789Z,100296.64
2019-05-28T01:32:51.375Z,100289.67
2019-05-28T01:35:41.848Z,100289.36
2019-05-28T01:38:32.119Z,100291.90
2019-05-28T01:41:22.489Z,100293.97
2019-05-28T01:44:12.752Z,100295.67
2019-05-28T01:47:02.976Z,100295.17
2019-05-28T01:49:53.291Z,100289.58
2019-05-28T01:52:43.569Z,100291.25
2019-05-28T01:55:33.675Z,100284.44
2019-05-28T01:58:24.087Z,100293.93
2019-05-28T02:01:14.213Z,100288.83
2019-05-28T02:04:04.372Z,100282.05
2019-05-28T02:06:54.590Z,100284.79
2019-05-28T02:09:44.624Z,100281.36
2019-05-28T02:12:34.802Z,100282.98
2019-05-28T02:15:25.279Z,100279.03
2019-05-28T02:18:15.608Z,100277.17
2019-05-28T02:21:05.770Z,100283.23
2019-05-28T02:23:55.764Z,100274.78
2019-05-28T02:26:46.112Z,100279.84
2019-05-28T02:29:36.498Z,100287.36
2019-05-28T02:32:26.631Z,100289.09
2019-05-28T02:35:16.989Z,100293.02
2019-05-28T02:38:07.163Z,100297.58
2019-05-28T02:40:57.459Z,100298.48
2019-05-28T02:43:47.706Z,100299.03
2019-05-28T02:46:37.987Z,100290.89
2019-05-28T02:49:28.188Z,100289.00
2019-05-28T02:52:18.552Z,100288.14
2019-05-28T02:55:09.139Z,100287.96
2019-05-28T02:57:59.255Z,100283.94
2019-05-28T03:00:50.028Z,100293.57
2019-05-28T03:03:40.687Z,100284.44
2019-05-28T03:06:30.926Z,100286.51
2019-05-28T03:09:20.965Z,100287.54
2019-05-28T03:12:11.263Z,100286.83
2019-05-28T03:15:01.320Z,100294.14
2019-05-28T03:17:52.607Z,100292.93
2019-05-28T03:20:42.630Z,100292.46
2019-05-28T03:23:33.079Z,100288.22
2019-05-28T03:26:23.850Z,100286.53
2019-05-28T03:29:14.371Z,100290.28
2019-05-28T03:32:08.779Z,100283.83
2019-05-28T03:34:56.767Z,100290.60
2019-05-28T03:37:46.989Z,100286.89
2019-05-28T03:40:44.175Z,100289.28
2019-05-28T03:43:34.462Z,100288.95
2019-05-28T03:46:24.606Z,100285.50
2019-05-28T03:49:14.738Z,100294.64
2019-05-28T03:52:04.838Z,100296.50
2019-05-28T03:54:55.129Z,100298.67
2019-05-28T03:57:45.046Z,100298.67
2019-05-28T04:00:35.324Z,100296.42
2019-05-28T04:03:25.543Z,100300.07
2019-05-28T04:06:15.816Z,100302.47
2019-05-28T04:09:08.801Z,100296.84
2019-05-28T04:12:03.141Z,100293.64
2019-05-28T04:14:54.589Z,100294.00
2019-05-28T04:17:44.931Z,100293.16
2019-05-28T04:20:35.135Z,100295.41
2019-05-28T04:23:25.196Z,100302.38
2019-05-28T04:26:15.539Z,100308.95
2019-05-28T04:29:06.400Z,100294.48
2019-05-28T04:31:56.803Z,100298.98
2019-05-28T04:34:47.361Z,100302.83
2019-05-28T04:37:38.123Z,100303.47
2019-05-28T04:40:28.959Z,100293.52
2019-05-28T04:43:19.764Z,100302.55
2019-05-28T04:46:10.409Z,100310.07
2019-05-28T04:49:01.182Z,100314.61
2019-05-28T04:51:52.016Z,100304.92
2019-05-28T04:54:42.847Z,100295.49
2019-05-28T04:57:33.792Z,100291.80
2019-05-28T05:00:24.587Z,100300.27
2019-05-28T05:03:15.633Z,100297.49
2019-05-28T05:06:06.634Z,100298.59
2019-05-28T05:08:57.675Z,100293.95
2019-05-28T05:11:48.681Z,100291.89
2019-05-28T05:14:39.479Z,100295.90
2019-05-28T05:17:30.261Z,100302.53
2019-05-28T05:20:21.066Z,100305.71
2019-05-28T05:23:11.593Z,100310.20
2019-05-28T05:26:02.940Z,100293.33
2019-05-28T05:28:53.562Z,100301.94
2019-05-28T05:31:44.182Z,100292.13
2019-05-28T05:34:34.768Z,100300.66
2019-05-28T05:37:25.493Z,100310.54
2019-05-28T05:40:16.911Z,100309.00
2019-05-28T05:43:07.533Z,100307.95
2019-05-28T05:45:58.286Z,100302.28
2019-05-28T05:48:49.312Z,100302.28
2019-05-28T05:51:40.329Z,100305.77
2019-05-28T05:54:31.438Z,100295.36
2019-05-28T05:57:22.495Z,100293.02
2019-05-28T06:00:13.528Z,100304.64
2019-05-28T06:03:04.326Z,100301.92
2019-05-28T06:05:55.111Z,100305.08
2019-05-28T06:08:45.930Z,100304.05
2019-05-28T06:11:36.532Z,100308.73
2019-05-28T06:14:27.006Z,100302.28
2019-05-28T06:17:17.395Z,100288.59
2019-05-28T06:20:08.404Z,100307.30
2019-05-28T06:22:59.047Z,100303.26
2019-05-28T06:25:49.260Z,100303.02
2019-05-28T06:28:39.840Z,100301.37
2019-05-28T06:31:30.492Z,100302.94
2019-05-28T06:34:21.281Z,100304.59
2019-05-28T06:37:11.579Z,100297.14
2019-05-28T06:40:01.800Z,100296.12
2019-05-28T06:42:52.310Z,100300.30
2019-05-28T06:45:42.679Z,100297.70
2019-05-28T06:48:33.240Z,100297.02
2019-05-28T06:51:23.819Z,100301.88
2019-05-28T06:54:14.179Z,100290.59
2019-05-28T06:57:21.557Z,100294.55
2019-05-28T06:59:56.696Z,100289.55
2019-05-28T07:02:47.367Z,100296.79
2019-05-28T07:05:38.084Z,100293.72
2019-05-28T07:08:28.564Z,100294.83
2019-05-28T07:11:20.034Z,100294.30
2019-05-28T07:14:10.508Z,100294.28
2019-05-28T07:17:01.488Z,100296.48
2019-05-28T07:19:52.151Z,100298.42
2019-05-28T07:22:42.554Z,100278.41
2019-05-28T07:25:32.804Z,100282.57
2019-05-28T07:28:23.335Z,100281.42
2019-05-28T07:31:14.012Z,100276.20
2019-05-28T07:34:04.576Z,100282.57
2019-05-28T07:36:55.222Z,100277.33
2019-05-28T07:39:45.747Z,100279.83
2019-05-28T07:42:36.253Z,100281.16
2019-05-28T07:45:26.727Z,100278.02
2019-05-28T07:48:17.281Z,100275.66
2019-05-28T07:51:07.738Z,100274.05
2019-05-28T07:53:58.094Z,100269.32
2019-05-28T07:56:48.640Z,100271.83
2019-05-28T07:59:39.309Z,100271.06
2019-05-28T08:02:30.115Z,100265.94
2019-05-28T08:05:20.962Z,100170.11
2019-05-28T08:08:11.729Z,100170.11
2019-05-28T08:11:02.429Z,100253.06
2019-05-28T08:13:53.366Z,100247.20
2019-05-28T08:16:52.347Z,100247.59
2019-05-28T08:19:37.364Z,100244.98
2019-05-28T08:22:41.580Z,100241.38
2019-05-28T08:25:41.471Z,100251.61
2019-05-28T08:28:19.764Z,100252.63
2019-05-28T08:31:15.425Z,100251.88
2019-05-28T08:33:57.462Z,100248.06
2019-05-28T08:37:04.324Z,100253.11
2019-05-28T08:39:40.885Z,100251.11
2019-05-28T08:42:31.820Z,100242.08
2019-05-28T08:45:22.834Z,100244.66
2019-05-28T08:48:13.984Z,100242.41
2019-05-28T08:51:04.730Z,100239.38
2019-05-28T08:53:55.777Z,100238.95
2019-05-28T08:56:46.547Z,100239.78
2019-05-28T08:59:37.102Z,100235.08
2019-05-28T09:02:28.930Z,100232.07
2019-05-28T09:05:26.467Z,100231.80
2019-05-28T09:08:12.048Z,100233.98
2019-05-28T09:11:02.860Z,100235.00
2019-05-28T09:13:54.010Z,100232.11
2019-05-28T09:16:44.797Z,100232.61
2019-05-28T09:19:35.417Z,100221.97
2019-05-28T09:22:26.638Z,100217.97
2019-05-28T09:25:17.765Z,100224.72
2019-05-28T09:28:08.600Z,100214.53
2019-05-28T09:30:59.258Z,100218.47
2019-05-28T09:33:50.096Z,100214.63
2019-05-28T09:36:41.014Z,100214.30
2019-05-28T09:39:31.945Z,100207.70
2019-05-28T09:42:23.216Z,100206.23
2019-05-28T09:45:22.362Z,100209.66
2019-05-28T09:48:06.971Z,100206.36
2019-05-28T09:50:57.698Z,100203.77
2019-05-28T09:53:48.590Z,100208.62
2019-05-28T09:56:39.307Z,100210.02
2019-05-28T09:59:41.021Z,100206.55
2019-05-28T10:02:22.890Z,100209.09
2019-05-28T10:05:13.745Z,100203.66
2019-05-28T10:08:04.552Z,100202.22
2019-05-28T10:10:55.167Z,100202.70
2019-05-28T10:13:46.667Z,100191.92
2019-05-28T10:16:37.601Z,100203.41
2019-05-28T10:19:28.426Z,100199.69
2019-05-28T10:22:19.354Z,100197.09
2019-05-28T10:25:09.966Z,100187.89
2019-05-28T10:28:01.921Z,100186.97
2019-05-28T10:30:52.753Z,100187.34
2019-05-28T10:33:43.810Z,100188.03
2019-05-28T10:36:37.191Z,100174.12
2019-05-28T10:39:27.160Z,100182.35
2019-05-28T10:42:18.077Z,100181.38
2019-05-28T10:45:09.532Z,100175.50
2019-05-28T10:48:01.336Z,100182.87
2019-05-28T10:50:52.425Z,100173.33
2019-05-28T10:53:43.336Z,100177.23
2019-05-28T10:56:34.025Z,100172.55
2019-05-28T10:59:24.792Z,100168.43
2019-05-28T11:02:15.535Z,100181.56
2019-05-28T11:05:06.990Z,100171.05
2019-05-28T11:07:57.850Z,100172.63
2019-05-28T11:10:48.475Z,100164.15
2019-05-28T11:13:52.481Z,100165.63
2019-05-28T11:16:31.434Z,100170.26
2019-05-28T11:19:22.464Z,100155.47
2019-05-28T11:22:13.050Z,100142.94
2019-05-28T11:25:03.974Z,100149.63
2019-05-28T11:27:54.833Z,100140.62
2019-05-28T11:30:45.567Z,100133.30
2019-05-28T11:33:38.139Z,100137.85
2019-05-28T11:36:28.740Z,100143.98
2019-05-28T11:39:19.668Z,100137.23
2019-05-28T11:42:10.596Z,100138.08
2019-05-28T11:45:01.770Z,100143.97
2019-05-28T11:47:52.851Z,100148.19
2019-05-28T11:50:43.746Z,100150.66
2019-05-28T11:53:36.751Z,100146.97
2019-05-28T11:56:26.977Z,100141.65
2019-05-28T11:59:17.672Z,100137.62
2019-05-28T12:02:08.132Z,100131.02
2019-05-28T12:04:59.066Z,100135.67
2019-05-28T12:07:51.796Z,100139.70
2019-05-28T12:10:42.644Z,100134.28
2019-05-28T12:13:33.252Z,100133.30
2019-05-28T12:16:24.185Z,100132.16
2019-05-28T12:19:14.948Z,100083.89
2019-05-28T12:22:06.151Z,100131.77
2019-05-28T12:24:57.034Z,100135.34
2019-05-28T12:27:48.145Z,100118.03
2019-05-28T12:30:38.727Z,100114.06
2019-05-28T12:33:29.648Z,100115.05
2019-05-28T12:36:21.583Z,100111.46
2019-05-28T12:39:12.568Z,100110.28
2019-05-28T12:42:07.133Z,100109.31
2019-05-28T12:45:08.812Z,100105.34
2019-05-28T12:48:07.521Z,100099.00
2019-05-28T12:50:41.388Z,100105.37
2019-05-28T12:53:49.178Z,100097.56
2019-05-28T12:56:24.811Z,100096.36
2019-05-28T12:59:15.704Z,100093.77
2019-05-28T13:02:06.717Z,100092.90
2019-05-28T13:04:57.821Z,100090.28
2019-05-28T13:08:06.266Z,100079.20
2019-05-28T13:10:41.205Z,100081.14
2019-05-28T13:13:32.303Z,100078.39
2019-05-28T13:16:22.835Z,100071.75
2019-05-28T13:19:13.849Z,100075.27
2019-05-28T13:22:04.595Z,100074.24
2019-05-28T13:24:55.330Z,100064.77
2019-05-28T13:27:46.096Z,100066.89
2019-05-28T13:30:37.090Z,100061.10
2019-05-28T13:33:27.702Z,100064.78
2019-05-28T13:36:18.525Z,100059.33
2019-05-28T13:39:09.411Z,100060.94
2019-05-28T13:42:00.297Z,100055.91
2019-05-28T13:44:51.248Z,100051.65
2019-05-28T13:47:41.867Z,100048.80
2019-05-28T13:50:32.813Z,100036.05
2019-05-28T13:53:23.554Z,100037.37
2019-05-28T13:56:14.121Z,100025.08
2019-05-28T13:59:04.785Z,100016.83
2019-05-28T14:01:55.581Z,100016.64
2019-05-28T14:04:46.486Z,100017.49
2019-05-28T14:07:37.714Z,100016.23
2019-05-28T14:10:28.577Z,100015.79
2019-05-28T14:13:19.086Z,100010.31
2019-05-28T14:16:09.934Z,100011.06
2019-05-28T14:19:00.735Z,100009.28
2019-05-28T14:21:51.622Z,100008.20
2019-05-28T14:24:42.483Z,100006.55
2019-05-28T14:27:33.574Z,100001.97
2019-05-28T14:30:24.225Z,100003.14
2019-05-28T14:33:15.341Z,100008.62
2019-05-28T14:36:06.509Z,100013.50
2019-05-28T14:39:03.181Z,100020.55
2019-05-28T14:41:49.796Z,100012.13
2019-05-28T14:44:43.234Z,100009.95
2019-05-28T14:47:33.289Z,100006.58
2019-05-28T14:50:24.300Z,100004.90
2019-05-28T14:53:15.079Z,100004.48
2019-05-28T14:56:05.924Z,100011.95
2019-05-28T14:58:57.763Z,100007.00
2019-05-28T15:01:48.622Z,99992.07
2019-05-28T15:04:39.163Z,99993.75
2019-05-28T15:07:29.973Z,99992.86
2019-05-28T15:10:20.494Z,99981.50
2019-05-28T15:13:11.093Z,99982.84
2019-05-28T15:16:01.903Z,99988.23
2019-05-28T15:18:52.572Z,99984.63
2019-05-28T15:21:43.174Z,99981.04
2019-05-28T15:24:34.133Z,99981.23
2019-05-28T15:27:24.792Z,99988.06
2019-05-28T15:30:18.340Z,99996.89
2019-05-28T15:33:08.970Z,99997.01
2019-05-28T15:35:59.961Z,99997.58
2019-05-28T15:38:50.918Z,99995.69
2019-05-28T15:41:44.376Z,99996.84
2019-05-28T15:44:35.364Z,99997.50
2019-05-28T15:47:26.316Z,99992.44
2019-05-28T15:50:17.169Z,99987.48
2019-05-28T15:53:07.872Z,99987.08
2019-05-28T15:55:58.617Z,99989.09
2019-05-28T15:58:49.289Z,99992.67
2019-05-28T16:01:40.221Z,100002.64
2019-05-28T16:04:31.093Z,100005.49
2019-05-28T16:07:21.851Z,100007.27
2019-05-28T16:10:12.728Z,100009.98
2019-05-28T16:13:03.296Z,100003.52
2019-05-28T16:15:54.215Z,100010.48
2019-05-28T16:18:45.016Z,100007.33
2019-05-28T16:21:35.748Z,100014.48
2019-05-28T16:24:26.982Z,100013.55
2019-05-28T16:27:17.768Z,100010.34
2019-05-28T16:30:08.824Z,100012.46
2019-05-28T16:33:00.355Z,100008.39
2019-05-28T16:35:51.094Z,100009.52
2019-05-28T16:38:41.933Z,100007.95
2019-05-28T16:41:32.464Z,99999.09
2019-05-28T16:44:23.058Z,99997.73
2019-05-28T16:47:18.098Z,99999.81
2019-05-28T16:50:06.352Z,100008.22
2019-05-28T16:52:57.086Z,100004.20
2019-05-28T16:55:47.949Z,100013.03
2019-05-28T16:58:38.809Z,100016.39
2019-05-28T17:01:29.184Z,100018.12
2019-05-28T17:04:19.947Z,100017.09
2019-05-28T17:07:10.686Z,100022.94
2019-05-28T17:10:01.425Z,100031.98
2019-05-28T17:12:51.395Z,100027.08
2019-05-28T17:15:41.615Z,100022.59
2019-05-28T17:18:32.162Z,100026.97
2019-05-28T17:21:23.289Z,100025.02
2019-05-28T17:24:14.704Z,100016.00
2019-05-28T17:27:05.023Z,100014.81
2019-05-28T17:30:15.460Z,100011.39
2019-05-28T17:32:47.118Z,100010.13
2019-05-28T17:35:37.577Z,100015.06
2019-05-28T17:38:27.761Z,100019.52
2019-05-28T17:41:19.976Z,100028.19
2019-05-28T17:44:09.716Z,100022.74
2019-05-28T17:47:00.099Z,100017.45
2019-05-28T17:49:50.588Z,100010.89
2019-05-28T17:52:40.685Z,100007.01
2019-05-28T17:55:31.993Z,100004.69
2019-05-28T17:58:22.269Z,100011.56
2019-05-28T18:01:12.513Z,100003.91
2019-05-28T18:04:02.761Z,100016.03
2019-05-28T18:06:53.015Z,100017.50
2019-05-28T18:09:43.332Z,100016.30
2019-05-28T18:12:33.422Z,100020.94
2019-05-28T18:15:23.567Z,100020.42
2019-05-28T18:18:14.088Z,100021.48
2019-05-28T18:21:04.531Z,100021.78
2019-05-28T18:23:54.781Z,100035.46
2019-05-28T18:26:45.083Z,100032.19
2019-05-28T18:29:35.231Z,100032.24
2019-05-28T18:32:25.515Z,100029.22
2019-05-28T18:35:15.747Z,100026.42
2019-05-28T18:38:06.093Z,100032.98
2019-05-28T18:40:56.446Z,100029.70
2019-05-28T18:43:46.720Z,100036.27
2019-05-28T18:46:37.197Z,100033.95
2019-05-28T18:49:27.696Z,100040.56
2019-05-28T18:52:19.014Z,100043.69
2019-05-28T18:55:09.316Z,100046.80
2019-05-28T18:57:59.357Z,100039.52
2019-05-28T19:00:49.341Z,100050.52
2019-05-28T19:03:39.613Z,100050.06
2019-05-28T19:06:30.018Z,100055.90
2019-05-28T19:09:20.291Z,100048.58
2019-05-28T19:12:10.417Z,100047.36
2019-05-28T19:15:00.907Z,100056.16
2019-05-28T19:17:52.266Z,100056.97
2019-05-28T19:20:42.647Z,100059.33
2019-05-28T19:23:33.030Z,100058.28
2019-05-28T19:26:23.218Z,100059.33
2019-05-28T19:29:13.254Z,100058.07
2019-05-28T19:32:03.418Z,100054.19
2019-05-28T19:34:53.724Z,100060.61
2019-05-28T19:37:43.668Z,100058.73
2019-05-28T19:40:36.534Z,100055.17
2019-05-28T19:43:27.040Z,100053.83
2019-05-28T19:46:17.143Z,100051.45
2019-05-28T19:49:07.159Z,100049.99
2019-05-28T19:51:57.655Z,100057.44
2019-05-28T19:54:47.672Z,100064.44
2019-05-28T19:57:37.862Z,100065.15
2019-05-28T20:00:28.099Z,100068.66
2019-05-28T20:03:18.333Z,100066.89
2019-05-28T20:06:08.626Z,100069.80
2019-05-28T20:08:58.707Z,100064.73
2019-05-28T20:11:48.677Z,100057.89
2019-05-28T20:14:38.822Z,100058.61
2019-05-28T20:17:29.243Z,100053.17
2019-05-28T20:20:19.380Z,100050.56
2019-05-28T20:23:09.654Z,100042.93
2019-05-28T20:25:59.916Z,100037.66
2019-05-28T20:29:05.317Z,100040.96
2019-05-28T20:31:41.732Z,100039.29
2019-05-28T20:34:31.763Z,100035.60
2019-05-28T20:37:22.023Z,100025.48
2019-05-28T20:40:12.359Z,100030.87
2019-05-28T20:43:04.152Z,100040.11
2019-05-28T20:45:54.299Z,100043.14
2019-05-28T20:48:44.768Z,100047.08
2019-05-28T20:51:35.153Z,100047.31
2019-05-28T20:54:25.408Z,100054.50
2019-05-28T20:57:15.725Z,100048.79
2019-05-28T21:00:06.836Z,100047.23
2019-05-28T21:02:57.831Z,100054.30
2019-05-28T21:05:48.472Z,100054.07
2019-05-28T21:08:38.825Z,100051.58
2019-05-28T21:11:29.231Z,100053.14
2019-05-28T21:14:19.627Z,100046.22
2019-05-28T21:17:09.987Z,100040.70
2019-05-28T21:20:00.288Z,100040.52
2019-05-28T21:22:51.785Z,100031.13
2019-05-28T21:25:43.292Z,100034.59
2019-05-28T21:28:34.482Z,100027.80
2019-05-28T21:31:25.084Z,100037.32
2019-05-28T21:34:15.349Z,100044.34
2019-05-28T21:37:05.866Z,100037.48
2019-05-28T21:39:57.359Z,100038.23
2019-05-28T21:42:59.383Z,100050.67
2019-05-28T21:45:39.653Z,100041.66
2019-05-28T21:48:29.928Z,100038.83
2019-05-28T21:51:19.954Z,100035.91
2019-05-28T21:54:10.005Z,100042.05
2019-05-28T21:56:59.975Z,100043.49
2019-05-28T21:59:50.554Z,100029.70
2019-05-28T22:02:40.911Z,100044.65
2019-05-28T22:05:31.204Z,100047.32
2019-05-28T22:08:21.367Z,100044.60
2019-05-28T22:11:11.604Z,100038.45
2019-05-28T22:14:02.208Z,100038.21
2019-05-28T22:16:52.630Z,100037.63
2019-05-28T22:19:42.900Z,100043.52
2019-05-28T22:22:33.143Z,100037.48
2019-05-28T22:25:23.465Z,100036.87
2019-05-28T22:28:13.848Z,100042.93
2019-05-28T22:31:04.261Z,100043.98
2019-05-28T22:33:54.602Z,100039.84
2019-05-28T22:36:44.835Z,100044.04
2019-05-28T22:39:34.983Z,100049.94
2019-05-28T22:42:25.000Z,100048.13
2019-05-28T22:45:15.197Z,100050.66
2019-05-28T22:48:07.578Z,100047.93
2019-05-28T22:50:57.373Z,100060.33
2019-05-28T22:53:47.443Z,100056.69
2019-05-28T22:56:37.710Z,100072.31
2019-05-28T22:59:28.008Z,100071.39
2019-05-28T23:02:18.409Z,100071.05
2019-05-28T23:05:09.311Z,100077.20
2019-05-28T23:07:59.621Z,100075.27
2019-05-28T23:10:49.885Z,100078.69
2019-05-28T23:13:46.885Z,100078.38
2019-05-28T23:16:31.678Z,100078.84
2019-05-28T23:19:21.942Z,100079.66
2019-05-28T23:22:12.188Z,100072.98
2019-05-28T23:25:03.300Z,100070.39
2019-05-28T23:27:53.672Z,100060.06
2019-05-28T23:30:44.074Z,100056.80
2019-05-28T23:33:35.456Z,100066.36
2019-05-28T23:36:25.707Z,100048.37
2019-05-28T23:39:16.102Z,100049.31
2019-05-28T23:42:07.268Z,100053.36
2019-05-28T23:44:57.592Z,100048.79
2019-05-28T23:47:47.775Z,100051.78
2019-05-28T23:50:38.060Z,100050.42
2019-05-28T23:53:28.334Z,100052.79
2019-05-28T23:56:18.561Z,100054.92
2019-05-28T23:59:09.765Z,100046.81
